createdAt,value
2019-04-14T00:00:44.982Z,38.20
2019-04-14T00:01:45.513Z,41.50
2019-04-14T00:02:44.963Z,41.10
2019-04-14T00:03:45.414Z,37.30
2019-04-14T00:04:44.936Z,37.60
2019-04-14T00:05:45.128Z,33.60
2019-04-14T00:06:46.174Z,37.00
2019-04-14T00:07:45.087Z,37.50
2019-04-14T00:08:45.907Z,37.40
2019-04-14T00:09:45.312Z,36.30
2019-04-14T00:10:44.864Z,35.30
2019-04-14T00:11:45.899Z,35.50
2019-04-14T00:12:44.930Z,36.60
2019-04-14T00:13:45.670Z,39.40
2019-04-14T00:14:44.826Z,37.10
2019-04-14T00:15:48.486Z,38.00
2019-04-14T00:16:44.803Z,37.60
2019-04-14T00:17:45.639Z,35.50
2019-04-14T00:18:44.810Z,37.30
2019-04-14T00:19:45.642Z,37.50
2019-04-14T00:20:44.848Z,40.70
2019-04-14T00:21:45.456Z,37.50
2019-04-14T00:22:44.732Z,36.60
2019-04-14T00:23:45.627Z,37.20
2019-04-14T00:24:44.706Z,35.40
2019-04-14T00:25:45.489Z,36.80
2019-04-14T00:26:44.686Z,34.80
2019-04-14T00:27:45.343Z,36.50
2019-04-14T00:28:44.755Z,37.30
2019-04-14T00:29:45.775Z,38.00
2019-04-14T00:30:44.810Z,36.90
2019-04-14T00:31:45.531Z,37.00
2019-04-14T00:32:44.609Z,36.30
2019-04-14T00:33:45.326Z,36.80
2019-04-14T00:34:44.594Z,39.50
2019-04-14T00:35:44.916Z,35.90
2019-04-14T00:36:45.864Z,34.90
2019-04-14T00:37:44.558Z,39.60
2019-04-14T00:38:45.602Z,37.20
2019-04-14T00:39:44.533Z,36.80
2019-04-14T00:40:45.422Z,37.90
2019-04-14T00:41:50.275Z,39.60
2019-04-14T00:42:45.208Z,37.70
2019-04-14T00:43:44.485Z,36.80
2019-04-14T00:44:45.290Z,37.60
2019-04-14T00:45:48.219Z,38.60
2019-04-14T00:46:45.272Z,35.50
2019-04-14T00:47:55.737Z,38.90
2019-04-14T00:48:45.225Z,37.00
2019-04-14T00:49:44.417Z,37.30
2019-04-14T00:50:45.255Z,39.70
2019-04-14T00:51:44.422Z,35.90
2019-04-14T00:52:44.380Z,35.90
2019-04-14T00:53:44.636Z,35.70
2019-04-14T00:54:45.421Z,35.10
2019-04-14T00:55:44.404Z,38.00
2019-04-14T00:56:45.443Z,38.10
2019-04-14T00:57:44.322Z,37.20
2019-04-14T00:58:45.359Z,36.00
2019-04-14T00:59:44.304Z,36.20
2019-04-14T01:00:45.155Z,37.10
2019-04-14T01:01:44.277Z,36.10
2019-04-14T01:02:45.038Z,37.00
2019-04-14T01:03:44.251Z,36.00
2019-04-14T01:04:44.774Z,36.10
2019-04-14T01:05:44.227Z,34.60
2019-04-14T01:06:44.864Z,35.30
2019-04-14T01:07:45.488Z,36.60
2019-04-14T01:08:44.511Z,36.20
2019-04-14T01:09:44.293Z,37.40
2019-04-14T01:10:45.351Z,35.00
2019-04-14T01:11:44.386Z,34.90
2019-04-14T01:12:45.299Z,36.90
2019-04-14T01:13:44.141Z,32.50
2019-04-14T01:14:45.195Z,35.40
2019-04-14T01:15:51.459Z,35.10
2019-04-14T01:16:45.194Z,36.60
2019-04-14T01:17:44.086Z,36.00
2019-04-14T01:18:45.109Z,38.00
2019-04-14T01:19:44.068Z,37.20
2019-04-14T01:20:44.973Z,34.90
2019-04-14T01:21:44.047Z,38.00
2019-04-14T01:22:44.551Z,37.30
2019-04-14T01:23:44.020Z,38.70
2019-04-14T01:24:44.688Z,35.70
2019-04-14T01:25:45.237Z,37.50
2019-04-14T01:26:44.259Z,37.10
2019-04-14T01:27:45.043Z,36.60
2019-04-14T01:28:44.089Z,38.60
2019-04-14T01:29:44.863Z,35.60
2019-04-14T01:30:43.939Z,37.50
2019-04-14T01:31:44.667Z,36.80
2019-04-14T01:32:43.918Z,36.20
2019-04-14T01:33:44.426Z,38.10
2019-04-14T01:34:43.892Z,37.50
2019-04-14T01:35:44.350Z,38.00
2019-04-14T01:36:43.867Z,39.40
2019-04-14T01:37:44.127Z,40.70
2019-04-14T01:38:44.912Z,39.20
2019-04-14T01:39:43.834Z,38.10
2019-04-14T01:40:44.578Z,40.20
2019-04-14T01:41:43.808Z,39.90
2019-04-14T01:42:44.208Z,39.20
2019-04-14T01:43:43.780Z,41.10
2019-04-14T01:44:43.895Z,39.20
2019-04-14T01:45:44.867Z,39.30
2019-04-14T01:46:43.748Z,39.80
2019-04-14T01:47:44.536Z,36.70
2019-04-14T01:48:43.724Z,38.70
2019-04-14T01:49:44.380Z,41.00
2019-04-14T01:50:43.707Z,40.30
2019-04-14T01:51:44.200Z,42.40
2019-04-14T01:52:43.734Z,40.50
2019-04-14T01:53:44.609Z,39.00
2019-04-14T01:54:43.651Z,39.40
2019-04-14T01:55:44.113Z,40.40
2019-04-14T01:56:44.914Z,40.50
2019-04-14T01:57:43.839Z,40.90
2019-04-14T01:58:44.674Z,41.10
2019-04-14T01:59:43.865Z,38.60
2019-04-14T02:00:44.469Z,39.60
2019-04-14T02:01:44.073Z,40.30
2019-04-14T02:02:44.326Z,43.40
2019-04-14T02:03:43.545Z,40.60
2019-04-14T02:04:44.342Z,44.90
2019-04-14T02:05:43.521Z,45.00
2019-04-14T02:06:44.102Z,40.80
2019-04-14T02:07:43.495Z,39.40
2019-04-14T02:08:43.703Z,42.60
2019-04-14T02:09:44.430Z,43.40
2019-04-14T02:10:43.546Z,43.70
2019-04-14T02:11:44.515Z,44.60
2019-04-14T02:12:43.436Z,44.70
2019-04-14T02:13:44.275Z,44.20
2019-04-14T02:14:43.409Z,49.00
2019-04-14T02:15:44.268Z,44.70
2019-04-14T02:16:50.063Z,44.20
2019-04-14T02:17:43.826Z,45.30
2019-04-14T02:18:43.359Z,44.40
2019-04-14T02:19:43.876Z,47.30
2019-04-14T02:20:44.599Z,43.80
2019-04-14T02:21:43.493Z,44.70
2019-04-14T02:22:44.098Z,46.90
2019-04-14T02:23:43.402Z,43.10
2019-04-14T02:24:43.878Z,48.60
2019-04-14T02:25:43.277Z,45.90
2019-04-14T02:26:43.835Z,45.10
2019-04-14T02:27:43.250Z,46.20
2019-04-14T02:28:43.881Z,45.20
2019-04-14T02:29:43.230Z,46.60
2019-04-14T02:30:53.996Z,46.70
2019-04-14T02:32:11.246Z,44.30
2019-04-14T02:33:13.855Z,46.20
2019-04-14T02:34:07.341Z,43.40
2019-04-14T02:35:13.278Z,45.80
2019-04-14T02:36:14.741Z,43.60
2019-04-14T02:37:10.760Z,45.30
2019-04-14T02:38:18.192Z,43.80
2019-04-14T02:39:13.492Z,42.60
2019-04-14T02:40:08.523Z,44.40
2019-04-14T02:41:18.890Z,43.50
2019-04-14T02:42:17.395Z,45.70
2019-04-14T02:43:12.919Z,44.10
2019-04-14T02:44:15.319Z,47.40
2019-04-14T02:45:10.424Z,46.30
2019-04-14T02:47:27.077Z,43.90
2019-04-14T02:48:29.074Z,45.20
2019-04-14T02:49:04.558Z,46.30
2019-04-14T02:50:13.868Z,46.40
2019-04-14T02:51:13.804Z,46.00
2019-04-14T02:52:12.049Z,43.90
2019-04-14T02:55:04.260Z,46.60
2019-04-14T02:57:15.043Z,47.00
2019-04-14T02:58:16.116Z,45.70
2019-04-14T02:59:03.719Z,42.60
2019-04-14T03:00:11.338Z,43.10
2019-04-14T03:01:14.777Z,44.80
2019-04-14T03:03:10.208Z,46.00
2019-04-14T03:04:09.153Z,47.20
2019-04-14T03:05:02.497Z,46.20
2019-04-14T03:06:05.751Z,46.20
2019-04-14T03:08:06.554Z,45.90
2019-04-14T03:09:22.137Z,47.50
2019-04-14T03:10:13.083Z,48.70
2019-04-14T03:11:25.705Z,48.20
2019-04-14T03:12:14.466Z,46.30
2019-04-14T03:13:13.135Z,46.20
2019-04-14T03:14:08.941Z,49.40
2019-04-14T03:15:08.060Z,48.70
2019-04-14T03:16:17.502Z,49.30
2019-04-14T03:17:21.455Z,47.10
2019-04-14T03:18:24.039Z,51.80
2019-04-14T03:19:09.478Z,48.10
2019-04-14T03:20:13.692Z,48.40
2019-04-14T03:21:13.797Z,48.70
2019-04-14T03:22:25.825Z,47.70
2019-04-14T03:23:19.272Z,50.70
2019-04-14T03:24:55.366Z,49.30
2019-04-14T03:26:05.031Z,48.20
2019-04-14T03:27:09.412Z,49.60
2019-04-14T03:28:28.387Z,48.00
2019-04-14T03:29:05.390Z,46.80
2019-04-14T03:30:17.467Z,47.10
2019-04-14T03:35:36.009Z,45.60
2019-04-14T03:38:14.638Z,46.00
2019-04-14T03:39:12.472Z,45.90
2019-04-14T03:40:10.002Z,46.70
2019-04-14T03:42:10.836Z,44.00
2019-04-14T03:43:17.062Z,42.10
2019-04-14T03:44:11.757Z,41.20
2019-04-14T03:45:07.903Z,41.80
2019-04-14T03:46:18.002Z,42.00
2019-04-14T03:49:26.524Z,41.30
2019-04-14T03:50:05.931Z,38.10
2019-04-14T03:51:15.107Z,42.40
2019-04-14T03:52:08.609Z,42.20
2019-04-14T03:54:03.364Z,40.30
2019-04-14T03:54:56.976Z,40.50
2019-04-14T03:55:49.112Z,39.40
2019-04-14T03:56:42.175Z,38.60
2019-04-14T03:57:43.321Z,39.30
2019-04-14T03:58:42.169Z,42.40
2019-04-14T03:59:43.443Z,42.70
2019-04-14T04:00:42.219Z,40.00
2019-04-14T04:01:43.424Z,39.20
2019-04-14T04:02:42.319Z,41.70
2019-04-14T04:03:42.089Z,42.40
2019-04-14T04:04:42.377Z,42.50
2019-04-14T04:05:42.061Z,39.70
2019-04-14T04:06:42.266Z,41.40
2019-04-14T04:07:43.158Z,41.70
2019-04-14T04:08:42.103Z,44.40
2019-04-14T04:09:43.232Z,42.10
2019-04-14T04:10:42.242Z,41.80
2019-04-14T04:11:43.304Z,42.80
2019-04-14T04:12:42.217Z,43.70
2019-04-14T04:13:41.975Z,42.70
2019-04-14T04:14:42.034Z,42.90
2019-04-14T04:15:43.195Z,42.70
2019-04-14T04:16:41.981Z,46.40
2019-04-14T04:17:42.947Z,44.70
2019-04-14T04:18:50.859Z,44.20
2019-04-14T04:19:42.641Z,45.60
2019-04-14T04:20:41.887Z,43.60
2019-04-14T04:21:42.337Z,43.40
2019-04-14T04:22:41.858Z,42.10
2019-04-14T04:23:42.451Z,47.20
2019-04-14T04:24:41.841Z,45.70
2019-04-14T04:25:42.206Z,47.30
2019-04-14T04:26:42.874Z,47.40
2019-04-14T04:27:41.952Z,47.00
2019-04-14T04:28:42.851Z,45.20
2019-04-14T04:29:42.036Z,44.80
2019-04-14T04:30:42.671Z,48.20
2019-04-14T04:31:41.794Z,51.40
2019-04-14T04:32:42.591Z,48.10
2019-04-14T04:33:41.735Z,54.70
2019-04-14T04:34:42.334Z,54.20
2019-04-14T04:35:41.711Z,54.20
2019-04-14T04:36:42.028Z,54.10
2019-04-14T04:37:41.684Z,58.80
2019-04-14T04:38:42.039Z,50.60
2019-04-14T04:39:41.668Z,54.40
2019-04-14T04:40:41.905Z,56.20
2019-04-14T04:41:42.801Z,56.30
2019-04-14T04:42:41.700Z,57.40
2019-04-14T04:43:41.618Z,53.30
2019-04-14T04:44:42.156Z,54.80
2019-04-14T04:45:41.600Z,62.40
2019-04-14T04:46:41.632Z,54.80
2019-04-14T04:47:42.590Z,56.40
2019-04-14T04:48:41.557Z,58.20
2019-04-14T04:49:42.616Z,53.20
2019-04-14T04:50:41.540Z,61.20
2019-04-14T04:51:42.153Z,56.50
2019-04-14T04:52:41.514Z,61.70
2019-04-14T04:53:41.983Z,62.20
2019-04-14T04:54:42.752Z,53.60
2019-04-14T04:55:41.717Z,58.80
2019-04-14T04:56:42.633Z,55.20
2019-04-14T04:57:41.637Z,57.20
2019-04-14T04:58:41.440Z,54.20
2019-04-14T04:59:41.428Z,53.20
2019-04-14T05:00:41.677Z,53.20
2019-04-14T05:01:41.407Z,53.50
2019-04-14T05:02:41.792Z,54.30
2019-04-14T05:03:41.389Z,53.80
2019-04-14T05:04:41.627Z,54.10
2019-04-14T05:05:41.366Z,52.10
2019-04-14T05:06:41.716Z,53.40
2019-04-14T05:07:42.439Z,56.50
2019-04-14T05:08:41.374Z,51.30
2019-04-14T05:09:41.312Z,48.60
2019-04-14T05:10:41.433Z,52.80
2019-04-14T05:11:42.557Z,47.90
2019-04-14T05:12:41.424Z,50.40
2019-04-14T05:13:42.362Z,47.20
2019-04-14T05:14:41.284Z,43.60
2019-04-14T05:15:42.381Z,43.30
2019-04-14T05:16:41.864Z,42.00
2019-04-14T05:17:41.226Z,46.40
2019-04-14T05:18:41.917Z,44.70
2019-04-14T05:19:42.052Z,45.10
2019-04-14T05:20:42.034Z,43.70
2019-04-14T05:21:41.176Z,44.20
2019-04-14T05:22:41.863Z,43.40
2019-04-14T05:23:41.161Z,42.40
2019-04-14T05:24:41.776Z,40.60
2019-04-14T05:25:41.137Z,41.30
2019-04-14T05:26:41.745Z,42.00
2019-04-14T05:27:41.107Z,41.20
2019-04-14T05:28:41.651Z,42.70
2019-04-14T05:29:41.086Z,41.10
2019-04-14T05:30:41.517Z,40.30
2019-04-14T05:31:41.067Z,38.70
2019-04-14T05:32:41.351Z,39.80
2019-04-14T05:33:41.040Z,38.60
2019-04-14T05:34:41.224Z,37.40
2019-04-14T05:35:42.097Z,39.10
2019-04-14T05:36:41.168Z,38.80
2019-04-14T05:37:41.921Z,37.00
2019-04-14T05:38:40.982Z,41.10
2019-04-14T05:39:41.901Z,38.80
2019-04-14T05:40:40.964Z,39.90
2019-04-14T05:41:55.849Z,40.60
2019-04-14T05:42:40.958Z,36.50
2019-04-14T05:43:48.784Z,40.60
2019-04-14T05:44:40.924Z,39.20
2019-04-14T05:45:41.647Z,37.30
2019-04-14T05:46:40.919Z,39.60
2019-04-14T05:47:41.483Z,38.80
2019-04-14T05:48:40.880Z,35.90
2019-04-14T05:49:45.506Z,40.80
2019-04-14T05:50:40.855Z,37.70
2019-04-14T05:51:41.567Z,37.40
2019-04-14T05:52:40.833Z,38.80
2019-04-14T05:53:41.591Z,38.40
2019-04-14T05:54:40.820Z,35.70
2019-04-14T05:55:41.633Z,37.70
2019-04-14T05:56:40.824Z,38.10
2019-04-14T05:57:41.647Z,37.30
2019-04-14T05:58:40.775Z,33.40
2019-04-14T05:59:41.795Z,36.70
2019-04-14T06:00:40.759Z,31.70
2019-04-14T06:01:41.956Z,36.30
2019-04-14T06:02:41.925Z,36.20
2019-04-14T06:03:40.840Z,37.20
2019-04-14T06:04:41.714Z,37.80
2019-04-14T06:05:40.702Z,34.70
2019-04-14T06:06:40.697Z,33.70
2019-04-14T06:07:40.688Z,32.70
2019-04-14T06:08:40.680Z,33.00
2019-04-14T06:09:40.668Z,33.90
2019-04-14T06:10:40.653Z,32.60
2019-04-14T06:11:40.643Z,31.40
2019-04-14T06:12:40.637Z,32.00
2019-04-14T06:13:40.626Z,32.00
2019-04-14T06:14:40.621Z,31.70
2019-04-14T06:15:40.613Z,31.90
2019-04-14T06:16:40.599Z,30.80
2019-04-14T06:17:40.588Z,32.90
2019-04-14T06:18:40.583Z,32.10
2019-04-14T06:19:40.780Z,29.20
2019-04-14T06:20:40.561Z,30.50
2019-04-14T06:21:40.550Z,29.20
2019-04-14T06:22:40.538Z,29.70
2019-04-14T06:23:40.584Z,32.30
2019-04-14T06:24:40.520Z,30.00
2019-04-14T06:25:40.510Z,29.20
2019-04-14T06:26:40.506Z,28.80
2019-04-14T06:27:40.495Z,29.00
2019-04-14T06:28:40.509Z,27.60
2019-04-14T06:29:40.481Z,28.20
2019-04-14T06:30:40.469Z,26.10
2019-04-14T06:31:40.460Z,28.00
2019-04-14T06:32:40.455Z,27.40
2019-04-14T06:33:40.445Z,28.10
2019-04-14T06:34:40.435Z,26.30
2019-04-14T06:35:40.426Z,27.20
2019-04-14T06:36:40.417Z,28.70
2019-04-14T06:37:40.411Z,27.40
2019-04-14T06:38:40.404Z,29.40
2019-04-14T06:39:40.395Z,29.00
2019-04-14T06:40:40.390Z,28.10
2019-04-14T06:41:40.382Z,28.50
2019-04-14T06:42:40.371Z,29.10
2019-04-14T06:43:48.661Z,27.30
2019-04-14T06:44:40.352Z,28.50
2019-04-14T06:45:40.342Z,27.20
2019-04-14T06:46:40.341Z,27.10
2019-04-14T06:47:40.334Z,26.40
2019-04-14T06:48:40.321Z,27.80
2019-04-14T06:49:48.937Z,27.50
2019-04-14T06:50:40.313Z,27.40
2019-04-14T06:51:40.307Z,27.40
2019-04-14T06:52:40.300Z,26.20
2019-04-14T06:53:40.293Z,27.30
2019-04-14T06:54:40.285Z,27.80
2019-04-14T06:55:40.279Z,27.50
2019-04-14T06:56:40.272Z,27.60
2019-04-14T06:57:40.265Z,25.40
2019-04-14T06:58:40.266Z,26.00
2019-04-14T06:59:40.259Z,26.50
2019-04-14T07:00:40.250Z,25.70
2019-04-14T07:01:40.252Z,24.90
2019-04-14T07:02:40.237Z,25.40
2019-04-14T07:03:40.234Z,26.60
2019-04-14T07:04:40.234Z,25.10
2019-04-14T07:05:40.226Z,25.30
2019-04-14T07:06:40.219Z,25.10
2019-04-14T07:07:40.215Z,25.90
2019-04-14T07:08:40.212Z,25.80
2019-04-14T07:09:40.210Z,25.80
2019-04-14T07:10:40.208Z,25.00
2019-04-14T07:11:40.206Z,25.80
2019-04-14T07:12:42.917Z,24.70
2019-04-14T07:13:40.221Z,26.10
2019-04-14T07:14:40.191Z,25.90
2019-04-14T07:15:40.187Z,27.10
2019-04-14T07:16:40.180Z,25.90
2019-04-14T07:17:40.177Z,25.40
2019-04-14T07:18:40.176Z,25.20
2019-04-14T07:19:40.178Z,25.10
2019-04-14T07:20:40.169Z,24.90
2019-04-14T07:21:40.164Z,25.10
2019-04-14T07:22:40.166Z,24.60
2019-04-14T07:23:40.162Z,25.30
2019-04-14T07:24:40.158Z,25.30
2019-04-14T07:25:40.155Z,25.10
2019-04-14T07:26:40.148Z,24.30
2019-04-14T07:27:40.147Z,24.40
2019-04-14T07:28:40.178Z,24.90
2019-04-14T07:29:40.140Z,25.20
2019-04-14T07:30:40.140Z,24.10
2019-04-14T07:31:40.137Z,25.80
2019-04-14T07:32:40.131Z,24.90
2019-04-14T07:33:40.129Z,25.00
2019-04-14T07:34:40.121Z,24.80
2019-04-14T07:35:40.119Z,25.50
2019-04-14T07:36:40.120Z,24.50
2019-04-14T07:37:40.116Z,25.00
2019-04-14T07:38:40.111Z,23.80
2019-04-14T07:39:40.110Z,24.70
2019-04-14T07:40:40.110Z,24.30
2019-04-14T07:41:40.108Z,24.70
2019-04-14T07:42:40.111Z,24.70
2019-04-14T07:43:40.107Z,23.60
2019-04-14T07:44:40.104Z,24.10
2019-04-14T07:45:40.102Z,22.70
2019-04-14T07:46:40.095Z,23.30
2019-04-14T07:47:40.094Z,22.80
2019-04-14T07:48:40.096Z,23.10
2019-04-14T07:49:40.094Z,23.00
2019-04-14T07:50:40.099Z,23.00
2019-04-14T07:51:40.097Z,23.90
2019-04-14T07:52:40.095Z,24.40
2019-04-14T07:53:40.089Z,22.00
2019-04-14T07:54:41.449Z,22.20
2019-04-14T07:55:40.097Z,23.60
2019-04-14T07:56:40.091Z,24.70
2019-04-14T07:57:40.097Z,23.50
2019-04-14T07:58:40.085Z,22.30
2019-04-14T07:59:40.084Z,22.60
2019-04-14T08:00:40.086Z,22.90
2019-04-14T08:01:40.084Z,20.60
2019-04-14T08:02:40.090Z,22.70
2019-04-14T08:03:40.097Z,23.10
2019-04-14T08:04:40.091Z,21.00
2019-04-14T08:05:40.094Z,22.50
2019-04-14T08:06:40.089Z,22.60
2019-04-14T08:07:40.091Z,21.90
2019-04-14T08:08:40.093Z,22.80
2019-04-14T08:09:40.094Z,21.10
2019-04-14T08:10:40.091Z,21.30
2019-04-14T08:11:40.095Z,21.60
2019-04-14T08:12:40.091Z,22.10
2019-04-14T08:13:40.090Z,23.60
2019-04-14T08:14:40.098Z,22.30
2019-04-14T08:15:40.098Z,22.60
2019-04-14T08:16:40.099Z,21.80
2019-04-14T08:17:40.101Z,22.00
2019-04-14T08:18:40.111Z,22.00
2019-04-14T08:19:40.100Z,21.90
2019-04-14T08:20:40.105Z,21.70
2019-04-14T08:21:40.105Z,22.50
2019-04-14T08:22:40.115Z,20.80
2019-04-14T08:23:40.114Z,21.60
2019-04-14T08:24:40.115Z,21.30
2019-04-14T08:25:40.113Z,21.50
2019-04-14T08:26:40.133Z,21.30
2019-04-14T08:27:40.124Z,21.40
2019-04-14T08:28:40.122Z,20.40
2019-04-14T08:29:40.124Z,20.70
2019-04-14T08:30:40.126Z,20.00
2019-04-14T08:31:40.126Z,19.60
2019-04-14T08:32:40.128Z,20.30
2019-04-14T08:33:40.133Z,19.30
2019-04-14T08:34:40.139Z,20.60
2019-04-14T08:35:40.144Z,19.80
2019-04-14T08:36:40.145Z,20.00
2019-04-14T08:37:40.150Z,19.90
2019-04-14T08:38:40.184Z,19.60
2019-04-14T08:39:40.152Z,19.00
2019-04-14T08:40:40.162Z,19.30
2019-04-14T08:41:40.165Z,20.00
2019-04-14T08:42:40.164Z,19.00
2019-04-14T08:43:40.168Z,18.20
2019-04-14T08:44:40.169Z,19.10
2019-04-14T08:45:40.174Z,19.80
2019-04-14T08:46:40.183Z,19.40
2019-04-14T08:47:40.186Z,18.40
2019-04-14T08:48:40.187Z,19.20
2019-04-14T08:49:40.191Z,19.90
2019-04-14T08:50:40.217Z,18.00
2019-04-14T08:51:40.203Z,17.60
2019-04-14T08:52:40.205Z,17.50
2019-04-14T08:53:40.209Z,17.70
2019-04-14T08:54:40.209Z,18.10
2019-04-14T08:55:40.214Z,17.80
2019-04-14T08:56:40.222Z,17.90
2019-04-14T08:57:40.228Z,17.60
2019-04-14T08:58:40.225Z,16.90
2019-04-14T08:59:40.231Z,17.70
2019-04-14T09:00:40.239Z,17.80
2019-04-14T09:01:40.242Z,17.10
2019-04-14T09:02:40.253Z,16.50
2019-04-14T09:03:40.256Z,16.40
2019-04-14T09:04:40.265Z,17.10
2019-04-14T09:05:40.265Z,15.90
2019-04-14T09:06:40.267Z,16.20
2019-04-14T09:07:40.271Z,16.00
2019-04-14T09:08:40.273Z,15.90
2019-04-14T09:09:40.277Z,17.40
2019-04-14T09:10:40.288Z,17.00
2019-04-14T09:11:40.295Z,16.80
2019-04-14T09:12:40.294Z,15.80
2019-04-14T09:13:40.298Z,15.40
2019-04-14T09:14:40.309Z,15.90
2019-04-14T09:15:40.313Z,16.30
2019-04-14T09:16:40.324Z,15.40
2019-04-14T09:17:40.329Z,15.60
2019-04-14T09:18:40.329Z,16.50
2019-04-14T09:19:40.336Z,17.00
2019-04-14T09:20:51.812Z,16.10
2019-04-14T09:21:40.347Z,16.00
2019-04-14T09:22:40.359Z,16.30
2019-04-14T09:23:40.366Z,16.50
2019-04-14T09:24:40.367Z,17.50
2019-04-14T09:25:40.373Z,16.40
2019-04-14T09:26:40.374Z,16.20
2019-04-14T09:27:40.382Z,16.60
2019-04-14T09:28:40.391Z,16.10
2019-04-14T09:29:40.398Z,16.10
2019-04-14T09:30:40.401Z,16.70
2019-04-14T09:31:40.407Z,16.00
2019-04-14T09:32:40.417Z,15.80
2019-04-14T09:33:40.423Z,15.50
2019-04-14T09:34:40.434Z,15.30
2019-04-14T09:35:40.444Z,16.00
2019-04-14T09:36:40.447Z,15.90
2019-04-14T09:37:40.457Z,15.90
2019-04-14T09:38:40.459Z,15.40
2019-04-14T09:39:40.467Z,16.70
2019-04-14T09:40:40.471Z,16.50
2019-04-14T09:41:40.479Z,16.40
2019-04-14T09:42:40.491Z,15.80
2019-04-14T09:43:40.497Z,15.00
2019-04-14T09:44:40.499Z,17.00
2019-04-14T09:45:40.506Z,15.80
2019-04-14T09:46:40.518Z,15.70
2019-04-14T09:47:40.526Z,15.90
2019-04-14T09:48:42.776Z,15.90
2019-04-14T09:49:40.556Z,17.20
2019-04-14T09:50:40.547Z,16.00
2019-04-14T09:51:40.564Z,16.90
2019-04-14T09:52:40.558Z,16.40
2019-04-14T09:53:40.567Z,17.10
2019-04-14T09:54:40.579Z,15.80
2019-04-14T09:55:40.588Z,16.40
2019-04-14T09:56:40.601Z,16.40
2019-04-14T09:57:40.603Z,16.40
2019-04-14T09:58:40.607Z,15.60
2019-04-14T09:59:40.615Z,15.70
2019-04-14T10:00:40.628Z,14.50
2019-04-14T10:01:40.636Z,14.70
2019-04-14T10:02:40.638Z,14.30
2019-04-14T10:03:40.647Z,15.20
2019-04-14T10:04:40.652Z,14.50
2019-04-14T10:05:40.657Z,13.80
2019-04-14T10:06:41.052Z,13.30
2019-04-14T10:07:40.679Z,14.30
2019-04-14T10:08:40.685Z,13.40
2019-04-14T10:09:40.692Z,13.30
2019-04-14T10:10:40.696Z,13.10
2019-04-14T10:11:48.423Z,12.90
2019-04-14T10:12:40.713Z,13.00
2019-04-14T10:13:40.722Z,12.60
2019-04-14T10:14:40.730Z,13.20
2019-04-14T10:15:40.740Z,12.60
2019-04-14T10:16:40.740Z,12.90
2019-04-14T10:17:40.746Z,13.10
2019-04-14T10:18:40.757Z,11.90
2019-04-14T10:19:40.763Z,13.10
2019-04-14T10:20:40.767Z,13.50
2019-04-14T10:21:40.774Z,15.70
2019-04-14T10:22:40.773Z,12.60
2019-04-14T10:23:40.779Z,13.60
2019-04-14T10:24:40.838Z,13.40
2019-04-14T10:25:40.790Z,13.00
2019-04-14T10:26:40.802Z,13.60
2019-04-14T10:27:40.807Z,13.10
2019-04-14T10:28:40.813Z,12.70
2019-04-14T10:29:40.825Z,13.70
2019-04-14T10:30:40.821Z,12.70
2019-04-14T10:31:40.832Z,14.40
2019-04-14T10:32:40.836Z,13.10
2019-04-14T10:33:40.842Z,13.00
2019-04-14T10:34:40.850Z,13.90
2019-04-14T10:35:40.851Z,13.10
2019-04-14T10:36:40.852Z,12.90
2019-04-14T10:37:40.863Z,12.80
2019-04-14T10:38:40.869Z,12.70
2019-04-14T10:39:40.874Z,12.90
2019-04-14T10:40:40.880Z,13.10
2019-04-14T10:41:40.887Z,12.40
2019-04-14T10:42:40.887Z,12.40
2019-04-14T10:43:40.909Z,12.30
2019-04-14T10:44:40.901Z,12.90
2019-04-14T10:45:40.907Z,13.20
2019-04-14T10:46:40.915Z,14.40
2019-04-14T10:47:40.919Z,13.00
2019-04-14T10:48:40.919Z,12.70
2019-04-14T10:49:40.925Z,12.00
2019-04-14T10:50:40.934Z,12.50
2019-04-14T10:51:40.941Z,11.00
2019-04-14T10:52:40.939Z,13.20
2019-04-14T10:53:40.943Z,12.90
2019-04-14T10:54:40.944Z,12.20
2019-04-14T10:55:40.946Z,13.00
2019-04-14T10:56:40.954Z,12.40
2019-04-14T10:57:40.960Z,14.30
2019-04-14T10:58:40.970Z,12.30
2019-04-14T10:59:40.970Z,12.10
2019-04-14T11:00:40.971Z,11.70
2019-04-14T11:01:40.976Z,12.80
2019-04-14T11:02:40.975Z,11.80
2019-04-14T11:03:40.981Z,13.90
2019-04-14T11:04:40.986Z,12.30
2019-04-14T11:05:40.991Z,12.20
2019-04-14T11:06:40.992Z,12.00
2019-04-14T11:07:40.995Z,11.70
2019-04-14T11:08:41.002Z,11.90
2019-04-14T11:09:41.006Z,13.30
2019-04-14T11:10:41.013Z,12.30
2019-04-14T11:11:41.018Z,12.00
2019-04-14T11:12:41.020Z,12.10
2019-04-14T11:13:41.027Z,11.40
2019-04-14T11:14:41.026Z,12.70
2019-04-14T11:15:41.032Z,13.30
2019-04-14T11:16:41.036Z,12.20
2019-04-14T11:17:41.036Z,12.10
2019-04-14T11:18:41.049Z,12.70
2019-04-14T11:19:41.048Z,12.80
2019-04-14T11:20:41.047Z,12.20
2019-04-14T11:21:42.591Z,12.90
2019-04-14T11:22:41.061Z,13.40
2019-04-14T11:23:41.063Z,12.60
2019-04-14T11:24:41.069Z,12.40
2019-04-14T11:25:41.076Z,13.20
2019-04-14T11:26:41.070Z,13.00
2019-04-14T11:27:41.073Z,13.60
2019-04-14T11:28:41.076Z,12.50
2019-04-14T11:29:41.079Z,14.00
2019-04-14T11:30:41.086Z,13.10
2019-04-14T11:31:41.093Z,16.10
2019-04-14T11:32:41.087Z,13.30
2019-04-14T11:33:41.089Z,12.70
2019-04-14T11:34:41.087Z,12.80
2019-04-14T11:35:41.087Z,12.10
2019-04-14T11:36:41.094Z,15.10
2019-04-14T11:37:41.164Z,15.60
2019-04-14T11:38:41.090Z,11.80
2019-04-14T11:39:41.091Z,11.90
2019-04-14T11:40:41.093Z,12.30
2019-04-14T11:41:41.094Z,11.80
2019-04-14T11:42:51.775Z,11.60
2019-04-14T11:43:41.097Z,12.40
2019-04-14T11:44:41.094Z,13.80
2019-04-14T11:45:41.095Z,13.30
2019-04-14T11:46:41.087Z,11.60
2019-04-14T11:47:41.087Z,13.00
2019-04-14T11:48:41.080Z,11.70
2019-04-14T11:49:41.080Z,13.20
2019-04-14T11:50:41.082Z,12.50
2019-04-14T11:51:41.081Z,13.10
2019-04-14T11:52:41.075Z,13.70
2019-04-14T11:53:41.119Z,13.20
2019-04-14T11:54:41.079Z,13.40
2019-04-14T11:55:41.070Z,13.20
2019-04-14T11:56:41.068Z,12.90
2019-04-14T11:57:41.073Z,13.10
2019-04-14T11:58:41.071Z,14.50
2019-04-14T11:59:41.056Z,12.80
2019-04-14T12:00:41.051Z,14.20
2019-04-14T12:01:41.046Z,13.40
2019-04-14T12:02:41.047Z,13.30
2019-04-14T12:03:41.043Z,12.70
2019-04-14T12:04:41.043Z,16.10
2019-04-14T12:05:41.038Z,12.30
2019-04-14T12:06:41.030Z,13.50
2019-04-14T12:07:41.032Z,12.90
2019-04-14T12:08:41.027Z,14.40
2019-04-14T12:09:41.023Z,13.40
2019-04-14T12:10:41.016Z,12.80
2019-04-14T12:11:41.013Z,14.80
2019-04-14T12:12:41.009Z,11.90
2019-04-14T12:13:41.002Z,11.60
2019-04-14T12:14:41.004Z,11.70
2019-04-14T12:15:40.998Z,12.80
2019-04-14T12:16:40.994Z,11.70
2019-04-14T12:17:40.991Z,15.10
2019-04-14T12:18:40.997Z,13.50
2019-04-14T12:19:40.980Z,13.80
2019-04-14T12:20:40.977Z,13.60
2019-04-14T12:21:40.974Z,14.10
2019-04-14T12:22:40.975Z,14.80
2019-04-14T12:23:40.968Z,16.00
2019-04-14T12:24:40.959Z,13.10
2019-04-14T12:25:40.955Z,13.80
2019-04-14T12:26:40.955Z,14.10
2019-04-14T12:27:42.000Z,16.40
2019-04-14T12:28:40.944Z,15.30
2019-04-14T12:29:41.245Z,14.10
2019-04-14T12:30:41.955Z,16.00
2019-04-14T12:31:41.966Z,15.20
2019-04-14T12:32:40.921Z,15.70
2019-04-14T12:33:40.917Z,15.40
2019-04-14T12:34:40.917Z,13.80
2019-04-14T12:35:40.913Z,14.40
2019-04-14T12:36:40.912Z,13.80
2019-04-14T12:37:40.905Z,13.70
2019-04-14T12:38:40.897Z,14.10
2019-04-14T12:39:40.896Z,13.40
2019-04-14T12:40:40.893Z,13.50
2019-04-14T12:41:40.888Z,14.30
2019-04-14T12:42:40.879Z,15.50
2019-04-14T12:43:40.876Z,13.80
2019-04-14T12:44:40.866Z,12.80
2019-04-14T12:45:40.863Z,13.50
2019-04-14T12:46:40.863Z,13.40
2019-04-14T12:47:40.861Z,13.70
2019-04-14T12:48:40.864Z,13.90
2019-04-14T12:49:40.849Z,13.80
2019-04-14T12:50:40.841Z,13.40
2019-04-14T12:51:40.837Z,13.50
2019-04-14T12:52:40.832Z,14.60
2019-04-14T12:53:40.827Z,15.20
2019-04-14T12:54:40.827Z,15.00
2019-04-14T12:55:40.823Z,14.00
2019-04-14T12:56:43.443Z,13.60
2019-04-14T12:57:40.808Z,14.80
2019-04-14T12:58:40.809Z,13.90
2019-04-14T12:59:40.803Z,14.80
2019-04-14T13:00:40.796Z,14.00
2019-04-14T13:01:40.790Z,15.70
2019-04-14T13:02:40.782Z,15.10
2019-04-14T13:03:42.060Z,16.60
2019-04-14T13:04:40.768Z,15.00
2019-04-14T13:05:40.765Z,13.90
2019-04-14T13:06:40.767Z,17.60
2019-04-14T13:07:40.758Z,13.90
2019-04-14T13:08:40.756Z,14.00
2019-04-14T13:09:40.752Z,13.10